sensor_id;sensor_type;location;lat;lon;timestamp;P1;durP1;ratioP1;P2;durP2;ratioP2
27839;SDS011;15207;42.182;24.308;2023-07-13T03:00:49;6.60;;;4.80;;
27839;SDS011;15207;42.182;24.308;2023-07-13T03:03:15;6.00;;;3.75;;
27839;SDS011;15207;42.182;24.308;2023-07-13T03:05:42;6.60;;;4.00;;
27839;SDS011;15207;42.182;24.308;2023-07-13T03:08:10;6.15;;;4.30;;
27839;SDS011;15207;42.182;24.308;2023-07-13T03:10:37;7.00;;;4.65;;
27839;SDS011;15207;42.182;24.308;2023-07-13T03:13:04;8.10;;;4.90;;
27839;SDS011;15207;42.182;24.308;2023-07-13T03:15:31;8.55;;;4.50;;
27839;SDS011;15207;42.182;24.308;2023-07-13T03:20:22;6.45;;;4.20;;
27839;SDS011;15207;42.182;24.308;2023-07-13T03:22:49;7.80;;;4.70;;
27839;SDS011;15207;42.182;24.308;2023-07-13T03:25:16;8.50;;;4.50;;
27839;SDS011;15207;42.182;24.308;2023-07-13T03:27:42;9.55;;;5.30;;
27839;SDS011;15207;42.182;24.308;2023-07-13T03:30:08;12.85;;;5.85;;
27839;SDS011;15207;42.182;24.308;2023-07-13T03:32:34;11.70;;;5.90;;
27839;SDS011;15207;42.182;24.308;2023-07-13T03:35:00;11.50;;;5.40;;
27839;SDS011;15207;42.182;24.308;2023-07-13T03:37:26;8.00;;;5.00;;
27839;SDS011;15207;42.182;24.308;2023-07-13T03:39:52;10.60;;;5.25;;
27839;SDS011;15207;42.182;24.308;2023-07-13T03:42:19;8.40;;;4.80;;
27839;SDS011;15207;42.182;24.308;2023-07-13T03:44:44;10.10;;;5.10;;
27839;SDS011;15207;42.182;24.308;2023-07-13T03:47:16;8.00;;;4.90;;
27839;SDS011;15207;42.182;24.308;2023-07-13T03:49:41;9.60;;;4.80;;
27839;SDS011;15207;42.182;24.308;2023-07-13T03:54:33;12.40;;;5.60;;
27839;SDS011;15207;42.182;24.308;2023-07-13T03:56:58;9.15;;;5.20;;
27839;SDS011;15207;42.182;24.308;2023-07-13T03:59:23;12.40;;;5.40;;
27839;SDS011;15207;42.182;24.308;2023-07-13T04:01:49;18.20;;;8.60;;
27839;SDS011;15207;42.182;24.308;2023-07-13T04:04:15;11.50;;;6.70;;
27839;SDS011;15207;42.182;24.308;2023-07-13T04:06:40;10.20;;;5.20;;
27839;SDS011;15207;42.182;24.308;2023-07-13T04:09:06;19.25;;;6.10;;
27839;SDS011;15207;42.182;24.308;2023-07-13T04:11:32;12.20;;;5.40;;
27839;SDS011;15207;42.182;24.308;2023-07-13T04:13:58;8.75;;;4.75;;
27839;SDS011;15207;42.182;24.308;2023-07-13T04:16:25;8.15;;;4.50;;
27839;SDS011;15207;42.182;24.308;2023-07-13T04:18:51;9.50;;;4.70;;
27839;SDS011;15207;42.182;24.308;2023-07-13T04:21:20;6.65;;;4.30;;
27839;SDS011;15207;42.182;24.308;2023-07-13T04:28:37;8.10;;;4.70;;
27839;SDS011;15207;42.182;24.308;2023-07-13T04:31:03;6.90;;;4.40;;
27839;SDS011;15207;42.182;24.308;2023-07-13T04:33:29;7.90;;;4.80;;
27839;SDS011;15207;42.182;24.308;2023-07-13T04:35:55;9.85;;;5.05;;
27839;SDS011;15207;42.182;24.308;2023-07-13T04:38:27;6.95;;;4.65;;
27839;SDS011;15207;42.182;24.308;2023-07-13T04:43:24;7.20;;;4.70;;
27839;SDS011;15207;42.182;24.308;2023-07-13T04:45:50;7.10;;;5.00;;
27839;SDS011;15207;42.182;24.308;2023-07-13T04:48:17;6.90;;;4.80;;
27839;SDS011;15207;42.182;24.308;2023-07-13T04:50:43;9.75;;;5.40;;
27839;SDS011;15207;42.182;24.308;2023-07-13T04:53:09;8.70;;;5.70;;
27839;SDS011;15207;42.182;24.308;2023-07-13T04:55:36;9.20;;;5.20;;
27839;SDS011;15207;42.182;24.308;2023-07-13T05:00:30;8.40;;;5.50;;
27839;SDS011;15207;42.182;24.308;2023-07-13T05:02:58;8.40;;;5.75;;
27839;SDS011;15207;42.182;24.308;2023-07-13T05:05:26;10.70;;;5.40;;
27839;SDS011;15207;42.182;24.308;2023-07-13T05:07:53;13.50;;;5.60;;
27839;SDS011;15207;42.182;24.308;2023-07-13T05:12:46;8.70;;;4.80;;
27839;SDS011;15207;42.182;24.308;2023-07-13T05:17:38;9.30;;;5.30;;
27839;SDS011;15207;42.182;24.308;2023-07-13T05:20:06;7.50;;;5.25;;
27839;SDS011;15207;42.182;24.308;2023-07-13T05:22:34;8.85;;;5.00;;
27839;SDS011;15207;42.182;24.308;2023-07-13T05:27:27;7.20;;;4.45;;
27839;SDS011;15207;42.182;24.308;2023-07-13T05:29:53;5.90;;;4.60;;
27839;SDS011;15207;42.182;24.308;2023-07-13T05:34:47;9.75;;;5.00;;
27839;SDS011;15207;42.182;24.308;2023-07-13T05:37:13;6.65;;;4.40;;
27839;SDS011;15207;42.182;24.308;2023-07-13T05:44:32;9.60;;;4.90;;
27839;SDS011;15207;42.182;24.308;2023-07-13T05:47:02;6.60;;;4.35;;
27839;SDS011;15207;42.182;24.308;2023-07-13T05:54:26;7.20;;;4.90;;
27839;SDS011;15207;42.182;24.308;2023-07-13T05:59:24;8.20;;;4.80;;
27839;SDS011;15207;42.182;24.308;2023-07-13T06:01:52;8.20;;;5.00;;
27839;SDS011;15207;42.182;24.308;2023-07-13T06:04:19;6.85;;;4.15;;
27839;SDS011;15207;42.182;24.308;2023-07-13T06:06:45;8.30;;;4.40;;
27839;SDS011;15207;42.182;24.308;2023-07-13T06:19:02;12.60;;;5.30;;
27839;SDS011;15207;42.182;24.308;2023-07-13T06:21:28;7.20;;;4.80;;
27839;SDS011;15207;42.182;24.308;2023-07-13T06:23:55;6.80;;;4.50;;
27839;SDS011;15207;42.182;24.308;2023-07-13T06:26:24;9.05;;;4.75;;
27839;SDS011;15207;42.182;24.308;2023-07-13T06:28:56;10.60;;;5.10;;
27839;SDS011;15207;42.182;24.308;2023-07-13T06:31:26;7.65;;;4.40;;
27839;SDS011;15207;42.182;24.308;2023-07-13T06:33:53;8.60;;;4.60;;
27839;SDS011;15207;42.182;24.308;2023-07-13T06:36:20;10.90;;;4.90;;
27839;SDS011;15207;42.182;24.308;2023-07-13T06:38:46;10.20;;;5.20;;
27839;SDS011;15207;42.182;24.308;2023-07-13T06:41:11;7.70;;;4.70;;
27839;SDS011;15207;42.182;24.308;2023-07-13T06:43:37;7.05;;;4.85;;
27839;SDS011;15207;42.182;24.308;2023-07-13T06:46:03;6.80;;;4.60;;
27839;SDS011;15207;42.182;24.308;2023-07-13T06:48:29;10.70;;;5.20;;
27839;SDS011;15207;42.182;24.308;2023-07-13T06:50:55;13.90;;;5.70;;
27839;SDS011;15207;42.182;24.308;2023-07-13T06:55:47;8.90;;;5.60;;
27839;SDS011;15207;42.182;24.308;2023-07-13T06:58:14;7.90;;;5.20;;
27839;SDS011;15207;42.182;24.308;2023-07-13T07:00:40;9.40;;;5.40;;
27839;SDS011;15207;42.182;24.308;2023-07-13T07:07:58;10.20;;;5.40;;
27839;SDS011;15207;42.182;24.308;2023-07-13T07:10:24;11.50;;;4.95;;
27839;SDS011;15207;42.182;24.308;2023-07-13T07:12:50;7.45;;;4.95;;
27839;SDS011;15207;42.182;24.308;2023-07-13T07:17:41;7.15;;;5.20;;
27839;SDS011;15207;42.182;24.308;2023-07-13T07:20:07;7.95;;;5.80;;
27839;SDS011;15207;42.182;24.308;2023-07-13T07:24:59;5.85;;;4.30;;
27839;SDS011;15207;42.182;24.308;2023-07-13T07:27:24;9.40;;;4.60;;
27839;SDS011;15207;42.182;24.308;2023-07-13T07:29:50;7.65;;;4.90;;
27839;SDS011;15207;42.182;24.308;2023-07-13T07:32:16;6.30;;;4.45;;
27839;SDS011;15207;42.182;24.308;2023-07-13T07:34:42;6.50;;;4.50;;
27839;SDS011;15207;42.182;24.308;2023-07-13T07:37:09;8.40;;;4.80;;
27839;SDS011;15207;42.182;24.308;2023-07-13T07:39:36;8.80;;;5.05;;
27839;SDS011;15207;42.182;24.308;2023-07-13T07:42:02;7.30;;;4.00;;
27839;SDS011;15207;42.182;24.308;2023-07-13T07:44:28;5.80;;;3.40;;
27839;SDS011;15207;42.182;24.308;2023-07-13T07:46:55;6.50;;;3.20;;
27839;SDS011;15207;42.182;24.308;2023-07-13T07:49:21;4.50;;;3.10;;
27839;SDS011;15207;42.182;24.308;2023-07-13T07:51:47;9.00;;;2.70;;
27839;SDS011;15207;42.182;24.308;2023-07-13T07:56:40;5.70;;;3.30;;
27839;SDS011;15207;42.182;24.308;2023-07-13T07:59:05;5.70;;;3.00;;
27839;SDS011;15207;42.182;24.308;2023-07-13T08:03:56;4.50;;;3.00;;
27839;SDS011;15207;42.182;24.308;2023-07-13T08:06:23;5.20;;;3.00;;
27839;SDS011;15207;42.182;24.308;2023-07-13T08:11:14;4.95;;;3.20;;
27839;SDS011;15207;42.182;24.308;2023-07-13T08:16:05;8.30;;;3.30;;
27839;SDS011;15207;42.182;24.308;2023-07-13T08:18:31;3.80;;;3.00;;
27839;SDS011;15207;42.182;24.308;2023-07-13T08:20:57;4.90;;;3.20;;
27839;SDS011;15207;42.182;24.308;2023-07-13T08:23:24;4.35;;;2.60;;
27839;SDS011;15207;42.182;24.308;2023-07-13T08:25:51;6.70;;;2.50;;
27839;SDS011;15207;42.182;24.308;2023-07-13T08:28:18;4.10;;;2.70;;
27839;SDS011;15207;42.182;24.308;2023-07-13T08:30:47;3.70;;;2.55;;
27839;SDS011;15207;42.182;24.308;2023-07-13T08:33:17;5.65;;;3.15;;
27839;SDS011;15207;42.182;24.308;2023-07-13T08:35:45;5.35;;;3.10;;
27839;SDS011;15207;42.182;24.308;2023-07-13T08:38:12;6.75;;;2.85;;
27839;SDS011;15207;42.182;24.308;2023-07-13T08:40:38;4.35;;;2.70;;
27839;SDS011;15207;42.182;24.308;2023-07-13T08:43:06;4.90;;;2.80;;
27839;SDS011;15207;42.182;24.308;2023-07-13T08:45:56;3.60;;;2.70;;
27839;SDS011;15207;42.182;24.308;2023-07-13T08:48:44;4.27;;;2.73;;
27839;SDS011;15207;42.182;24.308;2023-07-13T08:51:24;3.40;;;2.45;;
27839;SDS011;15207;42.182;24.308;2023-07-13T08:53:57;5.40;;;3.10;;
27839;SDS011;15207;42.182;24.308;2023-07-13T08:56:27;6.40;;;2.80;;
27839;SDS011;15207;42.182;24.308;2023-07-13T09:01:28;5.00;;;2.80;;
27839;SDS011;15207;42.182;24.308;2023-07-13T09:04:20;6.45;;;3.35;;
27839;SDS011;15207;42.182;24.308;2023-07-13T09:20:10;4.35;;;3.40;;
27839;SDS011;15207;42.182;24.308;2023-07-13T09:23:01;4.55;;;2.85;;
27839;SDS011;15207;42.182;24.308;2023-07-13T09:25:36;4.10;;;2.80;;
27839;SDS011;15207;42.182;24.308;2023-07-13T09:28:10;4.70;;;2.90;;
27839;SDS011;15207;42.182;24.308;2023-07-13T09:33:31;3.90;;;2.90;;
27839;SDS011;15207;42.182;24.308;2023-07-13T09:38:24;5.15;;;3.05;;
27839;SDS011;15207;42.182;24.308;2023-07-13T09:46:34;5.30;;;2.60;;
27839;SDS011;15207;42.182;24.308;2023-07-13T09:48:59;5.20;;;3.10;;
27839;SDS011;15207;42.182;24.308;2023-07-13T09:51:25;4.50;;;2.90;;
27839;SDS011;15207;42.182;24.308;2023-07-13T09:53:51;6.10;;;2.70;;
27839;SDS011;15207;42.182;24.308;2023-07-13T09:56:20;7.63;;;3.10;;
27839;SDS011;15207;42.182;24.308;2023-07-13T10:05:39;7.20;;;2.90;;
27839;SDS011;15207;42.182;24.308;2023-07-13T10:08:11;7.25;;;3.30;;
27839;SDS011;15207;42.182;24.308;2023-07-13T10:10:59;7.30;;;3.65;;
27839;SDS011;15207;42.182;24.308;2023-07-13T10:13:33;3.20;;;2.30;;
27839;SDS011;15207;42.182;24.308;2023-07-13T10:16:04;3.45;;;2.55;;
27839;SDS011;15207;42.182;24.308;2023-07-13T10:18:51;3.55;;;2.70;;
27839;SDS011;15207;42.182;24.308;2023-07-13T10:21:21;4.30;;;2.80;;
27839;SDS011;15207;42.182;24.308;2023-07-13T10:23:57;3.70;;;2.80;;
27839;SDS011;15207;42.182;24.308;2023-07-13T10:26:31;4.10;;;2.70;;
27839;SDS011;15207;42.182;24.308;2023-07-13T10:29:02;4.50;;;2.40;;
27839;SDS011;15207;42.182;24.308;2023-07-13T10:31:33;6.85;;;2.85;;
27839;SDS011;15207;42.182;24.308;2023-07-13T10:34:01;4.55;;;2.55;;
27839;SDS011;15207;42.182;24.308;2023-07-13T10:36:29;5.55;;;2.80;;
27839;SDS011;15207;42.182;24.308;2023-07-13T10:39:04;3.70;;;2.50;;
27839;SDS011;15207;42.182;24.308;2023-07-13T10:41:35;5.00;;;2.70;;
27839;SDS011;15207;42.182;24.308;2023-07-13T10:44:04;3.40;;;2.60;;
27839;SDS011;15207;42.182;24.308;2023-07-13T10:49:05;4.65;;;2.60;;
27839;SDS011;15207;42.182;24.308;2023-07-13T10:51:32;3.60;;;2.70;;
27839;SDS011;15207;42.182;24.308;2023-07-13T10:56:44;4.00;;;2.90;;
27839;SDS011;15207;42.182;24.308;2023-07-13T11:01:41;3.90;;;2.80;;
27839;SDS011;15207;42.182;24.308;2023-07-13T11:04:45;3.30;;;2.30;;
27839;SDS011;15207;42.182;24.308;2023-07-13T11:07:24;3.50;;;2.50;;
27839;SDS011;15207;42.182;24.308;2023-07-13T11:09:55;5.65;;;3.35;;
27839;SDS011;15207;42.182;24.308;2023-07-13T11:17:29;4.27;;;2.73;;
27839;SDS011;15207;42.182;24.308;2023-07-13T11:22:46;9.50;;;3.00;;
27839;SDS011;15207;42.182;24.308;2023-07-13T11:25:32;6.50;;;3.00;;
27839;SDS011;15207;42.182;24.308;2023-07-13T11:30:50;8.40;;;2.90;;
27839;SDS011;15207;42.182;24.308;2023-07-13T11:41:29;7.50;;;3.00;;
27839;SDS011;15207;42.182;24.308;2023-07-13T11:44:06;6.60;;;2.90;;
27839;SDS011;15207;42.182;24.308;2023-07-13T11:49:11;4.30;;;2.70;;
27839;SDS011;15207;42.182;24.308;2023-07-13T11:54:23;9.80;;;3.40;;
27839;SDS011;15207;42.182;24.308;2023-07-13T11:56:58;5.50;;;3.00;;
27839;SDS011;15207;42.182;24.308;2023-07-13T11:59:26;4.50;;;3.00;;
27839;SDS011;15207;42.182;24.308;2023-07-13T12:01:54;4.90;;;2.70;;
27839;SDS011;15207;42.182;24.308;2023-07-13T12:06:55;5.70;;;3.00;;
27839;SDS011;15207;42.182;24.308;2023-07-13T12:09:29;5.50;;;2.85;;
27839;SDS011;15207;42.182;24.308;2023-07-13T12:11:56;5.80;;;2.50;;
27839;SDS011;15207;42.182;24.308;2023-07-13T12:16:51;6.10;;;2.90;;
27839;SDS011;15207;42.182;24.308;2023-07-13T12:19:28;5.80;;;2.65;;
27839;SDS011;15207;42.182;24.308;2023-07-13T12:21:56;6.70;;;2.80;;
27839;SDS011;15207;42.182;24.308;2023-07-13T12:24:23;6.80;;;3.00;;
27839;SDS011;15207;42.182;24.308;2023-07-13T12:26:50;5.40;;;2.80;;
27839;SDS011;15207;42.182;24.308;2023-07-13T12:29:23;6.00;;;3.10;;
27839;SDS011;15207;42.182;24.308;2023-07-13T12:31:50;9.05;;;3.25;;
27839;SDS011;15207;42.182;24.308;2023-07-13T12:34:20;6.65;;;2.65;;
27839;SDS011;15207;42.182;24.308;2023-07-13T12:47:22;5.70;;;3.20;;
27839;SDS011;15207;42.182;24.308;2023-07-13T12:49:49;8.20;;;3.00;;
27839;SDS011;15207;42.182;24.308;2023-07-13T12:52:37;5.90;;;2.80;;
27839;SDS011;15207;42.182;24.308;2023-07-13T12:55:05;6.30;;;3.00;;
27839;SDS011;15207;42.182;24.308;2023-07-13T12:57:41;5.60;;;3.10;;
27839;SDS011;15207;42.182;24.308;2023-07-13T13:02:50;6.20;;;3.15;;
27839;SDS011;15207;42.182;24.308;2023-07-13T13:05:18;5.00;;;3.10;;
27839;SDS011;15207;42.182;24.308;2023-07-13T13:07:49;8.90;;;3.10;;
27839;SDS011;15207;42.182;24.308;2023-07-13T13:12:43;4.90;;;2.60;;
27839;SDS011;15207;42.182;24.308;2023-07-13T13:15:10;5.80;;;3.30;;
27839;SDS011;15207;42.182;24.308;2023-07-13T13:17:37;6.20;;;3.10;;
27839;SDS011;15207;42.182;24.308;2023-07-13T13:20:20;6.30;;;2.90;;
27839;SDS011;15207;42.182;24.308;2023-07-13T13:22:47;6.10;;;2.90;;
27839;SDS011;15207;42.182;24.308;2023-07-13T13:27:43;7.50;;;3.35;;
27839;SDS011;15207;42.182;24.308;2023-07-13T13:30:16;7.20;;;2.90;;
27839;SDS011;15207;42.182;24.308;2023-07-13T13:32:43;7.70;;;2.80;;
27839;SDS011;15207;42.182;24.308;2023-07-13T13:35:15;7.15;;;2.65;;
27839;SDS011;15207;42.182;24.308;2023-07-13T13:37:43;6.40;;;2.30;;
27839;SDS011;15207;42.182;24.308;2023-07-13T13:40:17;6.00;;;3.30;;
27839;SDS011;15207;42.182;24.308;2023-07-13T13:42:46;3.75;;;2.60;;
27839;SDS011;15207;42.182;24.308;2023-07-13T13:45:11;5.70;;;3.05;;
27839;SDS011;15207;42.182;24.308;2023-07-13T13:47:38;7.30;;;3.00;;
27839;SDS011;15207;42.182;24.308;2023-07-13T13:50:12;4.70;;;3.00;;
27839;SDS011;15207;42.182;24.308;2023-07-13T13:52:42;8.40;;;3.30;;
27839;SDS011;15207;42.182;24.308;2023-07-13T14:00:09;5.90;;;3.10;;
27839;SDS011;15207;42.182;24.308;2023-07-13T14:02:39;6.40;;;3.00;;
27839;SDS011;15207;42.182;24.308;2023-07-13T14:05:09;2.70;;;2.20;;
27839;SDS011;15207;42.182;24.308;2023-07-13T14:07:37;7.85;;;3.20;;
27839;SDS011;15207;42.182;24.308;2023-07-13T14:10:11;3.90;;;2.70;;
27839;SDS011;15207;42.182;24.308;2023-07-13T14:12:38;9.30;;;3.00;;
27839;SDS011;15207;42.182;24.308;2023-07-13T14:15:04;10.15;;;3.40;;
27839;SDS011;15207;42.182;24.308;2023-07-13T14:17:31;7.50;;;2.90;;
27839;SDS011;15207;42.182;24.308;2023-07-13T14:19:58;6.20;;;2.70;;
27839;SDS011;15207;42.182;24.308;2023-07-13T14:22:25;5.70;;;2.70;;
27839;SDS011;15207;42.182;24.308;2023-07-13T14:24:52;7.10;;;2.90;;
27839;SDS011;15207;42.182;24.308;2023-07-13T14:27:19;5.20;;;2.60;;
27839;SDS011;15207;42.182;24.308;2023-07-13T14:29:45;7.30;;;3.00;;
27839;SDS011;15207;42.182;24.308;2023-07-13T14:32:12;6.40;;;2.90;;
27839;SDS011;15207;42.182;24.308;2023-07-13T14:34:38;7.20;;;2.90;;
27839;SDS011;15207;42.182;24.308;2023-07-13T14:37:04;5.75;;;3.15;;
27839;SDS011;15207;42.182;24.308;2023-07-13T14:39:31;9.70;;;3.10;;
27839;SDS011;15207;42.182;24.308;2023-07-13T14:41:57;10.00;;;3.10;;
27839;SDS011;15207;42.182;24.308;2023-07-13T14:44:27;6.30;;;3.30;;
27839;SDS011;15207;42.182;24.308;2023-07-13T14:46:55;7.90;;;2.90;;
27839;SDS011;15207;42.182;24.308;2023-07-13T14:51:48;7.10;;;2.70;;
27839;SDS011;15207;42.182;24.308;2023-07-13T14:56:39;5.60;;;3.10;;
27839;SDS011;15207;42.182;24.308;2023-07-13T15:01:32;7.80;;;3.35;;
27839;SDS011;15207;42.182;24.308;2023-07-13T15:06:25;7.30;;;3.30;;
27839;SDS011;15207;42.182;24.308;2023-07-13T15:08:51;5.70;;;2.90;;
27839;SDS011;15207;42.182;24.308;2023-07-13T15:11:17;6.00;;;2.80;;
27839;SDS011;15207;42.182;24.308;2023-07-13T15:13:43;5.95;;;2.85;;
27839;SDS011;15207;42.182;24.308;2023-07-13T15:16:23;8.00;;;3.40;;
27839;SDS011;15207;42.182;24.308;2023-07-13T15:21:21;6.50;;;3.30;;
27839;SDS011;15207;42.182;24.308;2023-07-13T15:23:49;5.50;;;3.20;;
27839;SDS011;15207;42.182;24.308;2023-07-13T15:26:16;7.00;;;2.70;;
27839;SDS011;15207;42.182;24.308;2023-07-13T15:28:44;5.80;;;3.00;;
27839;SDS011;15207;42.182;24.308;2023-07-13T15:31:18;7.40;;;2.90;;
27839;SDS011;15207;42.182;24.308;2023-07-13T15:36:21;5.50;;;2.90;;
27839;SDS011;15207;42.182;24.308;2023-07-13T15:38:48;7.30;;;2.60;;
27839;SDS011;15207;42.182;24.308;2023-07-13T15:41:16;6.47;;;3.23;;
27839;SDS011;15207;42.182;24.308;2023-07-13T15:43:43;5.70;;;3.20;;
27839;SDS011;15207;42.182;24.308;2023-07-13T15:48:35;8.00;;;2.85;;
27839;SDS011;15207;42.182;24.308;2023-07-13T15:51:03;8.60;;;3.00;;
27839;SDS011;15207;42.182;24.308;2023-07-13T15:55:58;5.60;;;2.80;;
27839;SDS011;15207;42.182;24.308;2023-07-13T16:00:50;5.45;;;3.00;;
27839;SDS011;15207;42.182;24.308;2023-07-13T16:03:16;5.00;;;2.80;;
27839;SDS011;15207;42.182;24.308;2023-07-13T16:05:44;6.60;;;3.20;;
27839;SDS011;15207;42.182;24.308;2023-07-13T16:08:24;5.70;;;3.45;;
27839;SDS011;15207;42.182;24.308;2023-07-13T16:10:54;10.05;;;3.05;;
27839;SDS011;15207;42.182;24.308;2023-07-13T16:13:21;6.40;;;2.80;;
27839;SDS011;15207;42.182;24.308;2023-07-13T16:15:49;10.10;;;2.90;;
27839;SDS011;15207;42.182;24.308;2023-07-13T16:20:42;7.10;;;2.90;;
27839;SDS011;15207;42.182;24.308;2023-07-13T16:23:09;5.45;;;3.00;;
27839;SDS011;15207;42.182;24.308;2023-07-13T16:25:38;7.40;;;3.00;;
27839;SDS011;15207;42.182;24.308;2023-07-13T16:28:05;7.10;;;3.20;;
27839;SDS011;15207;42.182;24.308;2023-07-13T16:30:31;5.20;;;2.70;;
27839;SDS011;15207;42.182;24.308;2023-07-13T16:33:02;9.80;;;2.90;;
27839;SDS011;15207;42.182;24.308;2023-07-13T16:35:39;5.70;;;3.20;;
27839;SDS011;15207;42.182;24.308;2023-07-13T16:40:43;7.60;;;3.40;;
27839;SDS011;15207;42.182;24.308;2023-07-13T16:45:38;5.40;;;3.30;;
27839;SDS011;15207;42.182;24.308;2023-07-13T16:48:17;7.10;;;2.85;;
27839;SDS011;15207;42.182;24.308;2023-07-13T16:50:50;5.05;;;3.00;;
27839;SDS011;15207;42.182;24.308;2023-07-13T16:53:28;10.35;;;3.40;;
27839;SDS011;15207;42.182;24.308;2023-07-13T16:55:57;8.05;;;3.60;;
27839;SDS011;15207;42.182;24.308;2023-07-13T16:58:24;5.65;;;3.20;;
27839;SDS011;15207;42.182;24.308;2023-07-13T17:00:55;7.05;;;3.45;;
27839;SDS011;15207;42.182;24.308;2023-07-13T17:03:23;6.70;;;3.35;;
27839;SDS011;15207;42.182;24.308;2023-07-13T17:08:21;7.50;;;3.00;;
27839;SDS011;15207;42.182;24.308;2023-07-13T17:10:53;9.10;;;2.90;;
27839;SDS011;15207;42.182;24.308;2023-07-13T17:13:23;4.80;;;3.20;;
27839;SDS011;15207;42.182;24.308;2023-07-13T17:18:27;10.20;;;3.20;;
27839;SDS011;15207;42.182;24.308;2023-07-13T17:21:01;8.70;;;3.75;;
27839;SDS011;15207;42.182;24.308;2023-07-13T17:23:31;8.60;;;3.80;;
27839;SDS011;15207;42.182;24.308;2023-07-13T17:25:58;9.90;;;3.70;;
27839;SDS011;15207;42.182;24.308;2023-07-13T17:28:24;7.55;;;3.70;;
27839;SDS011;15207;42.182;24.308;2023-07-13T17:30:51;7.40;;;3.70;;
27839;SDS011;15207;42.182;24.308;2023-07-13T17:36:04;9.80;;;3.30;;
27839;SDS011;15207;42.182;24.308;2023-07-13T17:38:41;5.40;;;3.30;;
27839;SDS011;15207;42.182;24.308;2023-07-13T17:43:36;6.55;;;3.65;;
27839;SDS011;15207;42.182;24.308;2023-07-13T17:46:03;6.00;;;3.40;;
27839;SDS011;15207;42.182;24.308;2023-07-13T17:48:38;7.70;;;3.40;;
27839;SDS011;15207;42.182;24.308;2023-07-13T17:51:06;8.90;;;3.90;;
27839;SDS011;15207;42.182;24.308;2023-07-13T17:53:34;6.65;;;3.60;;
27839;SDS011;15207;42.182;24.308;2023-07-13T17:56:00;8.50;;;3.50;;
27839;SDS011;15207;42.182;24.308;2023-07-13T17:58:28;11.20;;;3.50;;
27839;SDS011;15207;42.182;24.308;2023-07-13T18:00:54;9.10;;;3.50;;
27839;SDS011;15207;42.182;24.308;2023-07-13T18:03:21;6.55;;;3.85;;
27839;SDS011;15207;42.182;24.308;2023-07-13T18:05:50;5.60;;;3.40;;
27839;SDS011;15207;42.182;24.308;2023-07-13T18:10:51;7.80;;;3.30;;
27839;SDS011;15207;42.182;24.308;2023-07-13T18:13:17;5.97;;;3.40;;
27839;SDS011;15207;42.182;24.308;2023-07-13T18:18:10;10.35;;;3.60;;
27839;SDS011;15207;42.182;24.308;2023-07-13T18:23:08;8.25;;;3.35;;
27839;SDS011;15207;42.182;24.308;2023-07-13T18:25:41;7.30;;;4.00;;
27839;SDS011;15207;42.182;24.308;2023-07-13T18:28:06;8.40;;;4.20;;
27839;SDS011;15207;42.182;24.308;2023-07-13T18:30:32;9.53;;;4.57;;
27839;SDS011;15207;42.182;24.308;2023-07-13T18:32:58;6.70;;;3.75;;
27839;SDS011;15207;42.182;24.308;2023-07-13T18:35:32;11.10;;;4.70;;
27839;SDS011;15207;42.182;24.308;2023-07-13T18:37:59;10.67;;;4.13;;
27839;SDS011;15207;42.182;24.308;2023-07-13T18:40:25;8.30;;;3.73;;
27839;SDS011;15207;42.182;24.308;2023-07-13T18:42:52;7.80;;;4.30;;
27839;SDS011;15207;42.182;24.308;2023-07-13T18:45:19;9.80;;;4.30;;
27839;SDS011;15207;42.182;24.308;2023-07-13T18:47:46;10.00;;;4.20;;
27839;SDS011;15207;42.182;24.308;2023-07-13T18:50:26;7.10;;;4.10;;
27839;SDS011;15207;42.182;24.308;2023-07-13T18:55:21;7.63;;;4.00;;
27839;SDS011;15207;42.182;24.308;2023-07-13T18:57:50;8.90;;;3.90;;
27839;SDS011;15207;42.182;24.308;2023-07-13T19:05:20;10.20;;;3.90;;
27839;SDS011;15207;42.182;24.308;2023-07-13T19:07:49;7.30;;;3.50;;
27839;SDS011;15207;42.182;24.308;2023-07-13T19:10:15;9.70;;;4.40;;
27839;SDS011;15207;42.182;24.308;2023-07-13T19:12:44;19.35;;;5.35;;
27839;SDS011;15207;42.182;24.308;2023-07-13T19:15:17;8.27;;;4.30;;
27839;SDS011;15207;42.182;24.308;2023-07-13T19:17:46;10.50;;;4.40;;
27839;SDS011;15207;42.182;24.308;2023-07-13T19:20:15;6.80;;;3.90;;
27839;SDS011;15207;42.182;24.308;2023-07-13T19:22:47;12.10;;;3.80;;
27839;SDS011;15207;42.182;24.308;2023-07-13T19:27:41;7.55;;;3.85;;
27839;SDS011;15207;42.182;24.308;2023-07-13T19:30:11;10.20;;;4.10;;
27839;SDS011;15207;42.182;24.308;2023-07-13T19:32:38;16.15;;;4.35;;
27839;SDS011;15207;42.182;24.308;2023-07-13T19:35:04;8.30;;;3.80;;
27839;SDS011;15207;42.182;24.308;2023-07-13T19:37:31;5.50;;;3.55;;
27839;SDS011;15207;42.182;24.308;2023-07-13T19:40:02;6.95;;;3.80;;
27839;SDS011;15207;42.182;24.308;2023-07-13T19:45:19;9.75;;;4.00;;
27839;SDS011;15207;42.182;24.308;2023-07-13T19:47:46;6.70;;;3.70;;
27839;SDS011;15207;42.182;24.308;2023-07-13T19:50:14;7.00;;;3.95;;
27839;SDS011;15207;42.182;24.308;2023-07-13T19:52:49;8.80;;;3.70;;
27839;SDS011;15207;42.182;24.308;2023-07-13T19:55:20;5.85;;;3.30;;
27839;SDS011;15207;42.182;24.308;2023-07-13T19:57:50;7.30;;;4.00;;
27839;SDS011;15207;42.182;24.308;2023-07-13T20:02:46;6.10;;;3.80;;
27839;SDS011;15207;42.182;24.308;2023-07-13T20:05:17;6.75;;;3.80;;
27839;SDS011;15207;42.182;24.308;2023-07-13T20:07:44;7.50;;;3.80;;
27839;SDS011;15207;42.182;24.308;2023-07-13T20:10:21;12.70;;;4.70;;
27839;SDS011;15207;42.182;24.308;2023-07-13T20:12:48;11.15;;;4.35;;
27839;SDS011;15207;42.182;24.308;2023-07-13T20:15:16;12.00;;;3.90;;
27839;SDS011;15207;42.182;24.308;2023-07-13T20:17:43;10.00;;;4.50;;
27839;SDS011;15207;42.182;24.308;2023-07-13T20:22:42;8.60;;;4.90;;
27839;SDS011;15207;42.182;24.308;2023-07-13T20:25:16;8.70;;;4.20;;
27839;SDS011;15207;42.182;24.308;2023-07-13T20:27:44;6.60;;;4.00;;
27839;SDS011;15207;42.182;24.308;2023-07-13T20:30:10;6.60;;;4.40;;
27839;SDS011;15207;42.182;24.308;2023-07-13T20:32:36;7.90;;;3.80;;
27839;SDS011;15207;42.182;24.308;2023-07-13T20:35:04;9.60;;;4.40;;
27839;SDS011;15207;42.182;24.308;2023-07-13T20:37:43;7.60;;;3.70;;
27839;SDS011;15207;42.182;24.308;2023-07-13T20:40:14;6.50;;;3.80;;
27839;SDS011;15207;42.182;24.308;2023-07-13T20:42:41;7.10;;;3.90;;
27839;SDS011;15207;42.182;24.308;2023-07-13T20:45:07;9.10;;;4.30;;
27839;SDS011;15207;42.182;24.308;2023-07-13T20:47:34;11.05;;;3.60;;
27839;SDS011;15207;42.182;24.308;2023-07-13T20:50:01;8.35;;;4.20;;
27839;SDS011;15207;42.182;24.308;2023-07-13T20:52:27;7.90;;;4.00;;
27839;SDS011;15207;42.182;24.308;2023-07-13T20:54:53;12.30;;;4.50;;
27839;SDS011;15207;42.182;24.308;2023-07-13T20:57:18;8.00;;;4.35;;
27839;SDS011;15207;42.182;24.308;2023-07-13T20:59:45;11.50;;;4.40;;
27839;SDS011;15207;42.182;24.308;2023-07-13T21:04:47;6.73;;;4.20;;
27839;SDS011;15207;42.182;24.308;2023-07-13T21:07:14;9.40;;;4.70;;
27839;SDS011;15207;42.182;24.308;2023-07-13T21:09:43;10.40;;;4.80;;
27839;SDS011;15207;42.182;24.308;2023-07-13T21:17:00;7.35;;;4.25;;
27839;SDS011;15207;42.182;24.308;2023-07-13T21:21:51;6.90;;;4.50;;
27839;SDS011;15207;42.182;24.308;2023-07-13T21:24:17;10.95;;;5.00;;
27839;SDS011;15207;42.182;24.308;2023-07-13T21:29:08;9.10;;;5.40;;
27839;SDS011;15207;42.182;24.308;2023-07-13T21:31:34;7.30;;;4.70;;
27839;SDS011;15207;42.182;24.308;2023-07-13T21:34:05;10.15;;;4.55;;
27839;SDS011;15207;42.182;24.308;2023-07-13T21:36:38;10.00;;;4.90;;
27839;SDS011;15207;42.182;24.308;2023-07-13T21:39:05;6.90;;;4.80;;
27839;SDS011;15207;42.182;24.308;2023-07-13T21:41:35;7.80;;;4.80;;